createdAt,value
2022-08-26T00:02:04.377Z,76.55
2022-08-26T00:04:51.692Z,76.17
2022-08-26T00:07:39.045Z,76.04
2022-08-26T00:10:26.420Z,76.28
2022-08-26T00:13:14.708Z,76.46
2022-08-26T00:16:02.752Z,76.09
2022-08-26T00:18:53.254Z,76.21
2022-08-26T00:21:40.538Z,75.92
2022-08-26T00:24:28.239Z,76.08
2022-08-26T00:27:15.556Z,76.24
2022-08-26T00:30:08.583Z,76.38
2022-08-26T00:32:56.938Z,76.06
2022-08-26T00:35:45.337Z,76.56
2022-08-26T00:38:33.370Z,76.59
2022-08-26T00:41:20.702Z,76.88
2022-08-26T00:44:10.528Z,76.78
2022-08-26T00:47:02.823Z,76.42
2022-08-26T00:49:51.872Z,76.48
2022-08-26T00:52:41.338Z,76.58
2022-08-26T00:55:41.254Z,76.37
2022-08-26T00:58:32.167Z,76.81
2022-08-26T01:01:19.687Z,76.39
2022-08-26T01:04:13.739Z,76.60
2022-08-26T01:07:02.289Z,76.41
2022-08-26T01:09:49.868Z,76.62
2022-08-26T01:12:45.201Z,76.92
2022-08-26T01:15:41.891Z,77.10
2022-08-26T01:18:30.304Z,76.48
2022-08-26T01:21:40.749Z,76.71
2022-08-26T01:24:30.406Z,76.51
2022-08-26T01:27:20.833Z,76.62
2022-08-26T01:30:08.772Z,76.60
2022-08-26T01:32:59.527Z,76.59
2022-08-26T01:35:47.783Z,76.80
2022-08-26T01:38:36.087Z,77.27
2022-08-26T01:41:27.440Z,77.26
2022-08-26T01:44:21.525Z,77.40
2022-08-26T01:47:09.948Z,77.25
2022-08-26T01:50:00.080Z,77.00
2022-08-26T01:52:54.260Z,77.42
2022-08-26T01:55:45.458Z,77.59
2022-08-26T01:58:39.248Z,77.86
2022-08-26T02:01:28.956Z,77.30
2022-08-26T02:04:29.644Z,77.86
2022-08-26T02:07:19.846Z,77.29
2022-08-26T02:10:09.308Z,77.53
2022-08-26T02:12:56.689Z,77.63
2022-08-26T02:15:45.883Z,78.15
2022-08-26T02:18:37.418Z,77.89
2022-08-26T02:21:24.939Z,77.86
2022-08-26T02:24:19.941Z,78.08
2022-08-26T02:27:07.412Z,78.25
2022-08-26T02:30:04.992Z,78.38
2022-08-26T02:32:53.325Z,78.09
2022-08-26T02:35:40.840Z,77.98
2022-08-26T02:38:29.599Z,78.01
2022-08-26T02:41:17.741Z,77.59
2022-08-26T02:44:07.353Z,78.00
2022-08-26T02:46:55.030Z,78.17
2022-08-26T02:49:47.219Z,78.02
2022-08-26T02:52:35.030Z,77.72
2022-08-26T02:55:22.295Z,77.85
2022-08-26T02:58:12.058Z,77.97
2022-08-26T03:00:59.751Z,77.64
2022-08-26T03:03:49.101Z,77.74
2022-08-26T03:06:37.597Z,77.69
2022-08-26T03:09:25.410Z,77.55
2022-08-26T03:12:13.267Z,77.74
2022-08-26T03:15:01.412Z,77.67
2022-08-26T03:17:50.266Z,77.67
2022-08-26T03:20:37.788Z,77.74
2022-08-26T03:23:25.795Z,77.49
2022-08-26T03:26:15.474Z,77.75
2022-08-26T03:29:22.648Z,77.53
2022-08-26T03:32:09.945Z,77.97
2022-08-26T03:34:58.167Z,77.75
2022-08-26T03:37:45.463Z,77.89
2022-08-26T03:40:36.759Z,77.97
2022-08-26T03:43:26.927Z,77.90
2022-08-26T03:46:15.034Z,77.70
2022-08-26T03:49:05.459Z,77.81
2022-08-26T03:51:52.638Z,77.89
2022-08-26T03:54:41.189Z,77.94
2022-08-26T03:57:31.474Z,77.76
2022-08-26T04:00:19.965Z,78.06
2022-08-26T04:03:10.050Z,78.05
2022-08-26T04:05:57.698Z,78.22
2022-08-26T04:08:45.384Z,78.26
2022-08-26T04:11:35.899Z,77.94
2022-08-26T04:14:27.830Z,78.00
2022-08-26T04:17:15.894Z,78.19
2022-08-26T04:20:06.502Z,78.06
2022-08-26T04:22:54.013Z,78.35
2022-08-26T04:25:41.263Z,78.19
2022-08-26T04:28:29.875Z,78.43
2022-08-26T04:31:18.836Z,78.86
2022-08-26T04:34:07.229Z,78.79
2022-08-26T04:36:56.201Z,78.70
2022-08-26T04:39:43.439Z,78.66
2022-08-26T04:42:33.608Z,78.65
2022-08-26T04:45:22.804Z,78.80
2022-08-26T04:48:11.065Z,79.10
2022-08-26T04:51:00.167Z,78.78
2022-08-26T04:53:47.413Z,79.15
2022-08-26T04:56:37.653Z,79.16
2022-08-26T04:59:25.279Z,78.98
2022-08-26T05:02:12.508Z,79.26
2022-08-26T05:04:59.730Z,79.19
2022-08-26T05:07:47.009Z,79.65
2022-08-26T05:10:46.923Z,79.77
2022-08-26T05:13:35.223Z,79.64
2022-08-26T05:16:22.664Z,79.24
2022-08-26T05:19:10.277Z,79.67
2022-08-26T05:22:01.259Z,79.93
2022-08-26T05:24:48.918Z,79.50
2022-08-26T05:27:36.422Z,79.76
2022-08-26T05:30:24.548Z,80.10
2022-08-26T05:33:12.379Z,79.98
2022-08-26T05:36:07.784Z,80.42
2022-08-26T05:38:57.917Z,80.18
2022-08-26T05:41:45.340Z,80.23
2022-08-26T05:44:55.591Z,79.94
2022-08-26T05:47:43.392Z,79.76
2022-08-26T05:50:30.595Z,80.09
2022-08-26T05:53:21.481Z,79.96
2022-08-26T05:56:10.817Z,80.06
2022-08-26T05:58:59.634Z,79.37
2022-08-26T06:01:47.089Z,79.57
2022-08-26T06:04:35.515Z,79.02
2022-08-26T06:07:43.578Z,79.45
2022-08-26T06:10:33.112Z,79.05
2022-08-26T06:13:24.308Z,78.40
2022-08-26T06:16:15.403Z,78.22
2022-08-26T06:19:11.178Z,78.04
2022-08-26T06:22:23.307Z,78.01
2022-08-26T06:25:29.649Z,77.59
2022-08-26T06:28:17.530Z,77.70
2022-08-26T06:31:06.394Z,77.52
2022-08-26T06:33:54.283Z,77.27
2022-08-26T06:36:44.017Z,76.62
2022-08-26T06:39:32.047Z,76.26
2022-08-26T06:42:19.496Z,76.47
2022-08-26T06:45:07.319Z,75.88
2022-08-26T06:47:54.792Z,76.13
2022-08-26T06:50:42.899Z,75.71
2022-08-26T06:53:30.137Z,75.22
2022-08-26T06:56:21.060Z,74.68
2022-08-26T06:59:12.613Z,74.26
2022-08-26T07:01:59.911Z,73.63
2022-08-26T07:04:51.104Z,73.12
2022-08-26T07:07:40.973Z,72.48
2022-08-26T07:10:33.047Z,71.85
2022-08-26T07:13:30.871Z,71.33
2022-08-26T07:16:18.613Z,70.86
2022-08-26T07:19:11.206Z,70.69
2022-08-26T07:22:04.346Z,69.63
2022-08-26T07:24:54.093Z,69.89
2022-08-26T07:27:44.026Z,69.34
2022-08-26T07:30:31.585Z,69.06
2022-08-26T07:33:22.286Z,68.66
2022-08-26T07:36:11.717Z,68.43
2022-08-26T07:38:59.321Z,67.99
2022-08-26T07:41:48.569Z,67.65
2022-08-26T07:44:38.266Z,66.86
2022-08-26T07:47:28.609Z,66.45
2022-08-26T07:50:18.605Z,66.30
2022-08-26T07:53:15.655Z,65.80
2022-08-26T07:56:05.566Z,65.73
2022-08-26T07:58:53.484Z,65.41
2022-08-26T08:01:44.749Z,65.00
2022-08-26T08:04:35.703Z,63.95
2022-08-26T08:07:38.647Z,64.41
2022-08-26T08:10:31.957Z,64.32
2022-08-26T08:13:23.071Z,63.86
2022-08-26T08:16:12.770Z,63.88
2022-08-26T08:19:00.368Z,63.37
2022-08-26T08:21:47.651Z,63.77
2022-08-26T08:24:35.309Z,63.90
2022-08-26T08:27:24.134Z,63.89
2022-08-26T08:30:13.643Z,63.56
2022-08-26T08:33:01.978Z,63.07
2022-08-26T08:35:49.833Z,62.53
2022-08-26T08:38:37.414Z,62.41
2022-08-26T08:41:43.707Z,62.16
2022-08-26T08:44:33.769Z,61.64
2022-08-26T08:47:36.175Z,59.60
2022-08-26T08:50:51.240Z,58.40
2022-08-26T08:53:42.123Z,60.45
2022-08-26T08:56:57.658Z,57.39
2022-08-26T09:00:02.666Z,58.61
2022-08-26T09:02:58.578Z,59.45
2022-08-26T09:05:51.603Z,59.69
2022-08-26T09:08:41.846Z,59.46
2022-08-26T09:11:29.470Z,59.20
2022-08-26T09:14:18.069Z,58.98
2022-08-26T09:17:16.127Z,55.50
2022-08-26T09:20:27.659Z,57.62
2022-08-26T09:23:19.425Z,57.94
2022-08-26T09:26:26.010Z,55.44
2022-08-26T09:29:22.424Z,57.44
2022-08-26T09:32:21.343Z,55.07
2022-08-26T09:35:35.838Z,53.93
2022-08-26T09:38:33.258Z,55.73
2022-08-26T09:41:32.947Z,54.32
2022-08-26T09:44:21.754Z,57.08
2022-08-26T09:47:09.942Z,56.57
2022-08-26T09:49:59.452Z,56.11
2022-08-26T09:52:46.736Z,56.44
2022-08-26T09:55:35.951Z,56.33
2022-08-26T09:58:37.818Z,53.56
2022-08-26T10:01:30.918Z,55.78
2022-08-26T10:04:24.917Z,54.08
2022-08-26T10:07:14.161Z,54.77
2022-08-26T10:10:09.423Z,53.38
2022-08-26T10:13:12.675Z,54.06
2022-08-26T10:16:00.234Z,53.94
2022-08-26T10:19:07.980Z,52.16
2022-08-26T10:22:07.924Z,51.40
2022-08-26T10:25:03.836Z,52.87
2022-08-26T10:28:03.694Z,50.37
2022-08-26T10:30:57.255Z,53.17
2022-08-26T10:33:44.626Z,53.48
2022-08-26T10:37:13.773Z,52.22
2022-08-26T10:40:07.643Z,52.79
2022-08-26T10:43:10.985Z,50.90
2022-08-26T10:46:08.972Z,52.37
2022-08-26T10:49:03.198Z,53.08
2022-08-26T10:52:03.961Z,50.91
2022-08-26T10:55:20.461Z,50.74
2022-08-26T10:58:30.692Z,50.53
2022-08-26T11:01:44.284Z,51.88
2022-08-26T11:04:37.822Z,52.37
2022-08-26T11:07:31.888Z,49.69
2022-08-26T11:10:19.145Z,51.87
2022-08-26T11:13:08.324Z,51.99
2022-08-26T11:16:01.323Z,49.45
2022-08-26T11:19:00.137Z,51.63
2022-08-26T11:22:05.646Z,50.48
2022-08-26T11:24:52.911Z,50.84
2022-08-26T11:27:40.332Z,50.90
2022-08-26T11:30:46.131Z,48.92
2022-08-26T11:33:54.128Z,47.42
2022-08-26T11:36:56.211Z,47.24
2022-08-26T11:39:55.194Z,48.69
2022-08-26T11:42:49.401Z,49.62
2022-08-26T11:46:00.514Z,46.65
2022-08-26T11:48:48.637Z,49.57
2022-08-26T11:51:40.405Z,49.66
2022-08-26T11:54:35.693Z,49.87
2022-08-26T11:57:23.493Z,49.55
2022-08-26T12:00:21.096Z,49.45
2022-08-26T12:03:17.904Z,48.21
2022-08-26T12:06:17.694Z,47.46
2022-08-26T12:09:12.993Z,48.71
2022-08-26T12:12:10.667Z,47.95
2022-08-26T12:15:05.639Z,47.74
2022-08-26T12:17:54.453Z,49.64
2022-08-26T12:20:48.642Z,49.70
2022-08-26T12:23:36.495Z,49.93
2022-08-26T12:26:34.890Z,49.42
2022-08-26T12:29:28.375Z,49.49
2022-08-26T12:32:18.484Z,49.84
2022-08-26T12:35:10.150Z,49.83
2022-08-26T12:37:58.926Z,50.03
2022-08-26T12:40:48.155Z,49.94
2022-08-26T12:43:44.395Z,47.78
2022-08-26T12:46:32.012Z,50.17
2022-08-26T12:49:19.345Z,50.12
2022-08-26T12:52:09.860Z,50.07
2022-08-26T12:55:18.583Z,48.57
2022-08-26T12:58:31.882Z,47.88
2022-08-26T13:01:25.294Z,49.21
2022-08-26T13:04:40.591Z,48.19
2022-08-26T13:07:27.899Z,49.53
2022-08-26T13:10:38.218Z,47.20
2022-08-26T13:13:25.489Z,49.41
2022-08-26T13:16:16.255Z,49.00
2022-08-26T13:19:13.428Z,47.44
2022-08-26T13:22:01.139Z,48.79
2022-08-26T13:24:48.520Z,48.46
2022-08-26T13:27:35.956Z,48.73
2022-08-26T13:30:24.649Z,48.04
2022-08-26T13:33:14.635Z,47.36
2022-08-26T13:36:02.073Z,47.07
2022-08-26T13:38:52.065Z,46.62
2022-08-26T13:41:40.717Z,46.66
2022-08-26T13:44:28.406Z,45.96
2022-08-26T13:47:16.975Z,46.22
2022-08-26T13:50:05.833Z,45.96
2022-08-26T13:52:53.857Z,45.36
2022-08-26T13:55:43.445Z,45.32
2022-08-26T13:58:31.127Z,44.98
2022-08-26T14:01:18.628Z,45.18
2022-08-26T14:04:06.652Z,45.10
2022-08-26T14:06:54.079Z,44.84
2022-08-26T14:09:41.678Z,43.99
2022-08-26T14:12:29.819Z,43.71
2022-08-26T14:15:18.883Z,43.91
2022-08-26T14:18:09.197Z,43.98
2022-08-26T14:20:57.650Z,43.68
2022-08-26T14:23:45.032Z,43.30
2022-08-26T14:26:32.931Z,42.49
2022-08-26T14:29:20.216Z,42.61
2022-08-26T14:32:13.710Z,42.00
2022-08-26T14:35:01.945Z,42.67
2022-08-26T14:37:49.565Z,42.66
2022-08-26T14:40:38.406Z,42.22
2022-08-26T14:43:26.417Z,42.01
2022-08-26T14:46:15.682Z,41.95
2022-08-26T14:49:06.198Z,41.84
2022-08-26T14:51:56.675Z,41.69
2022-08-26T14:54:44.668Z,41.51
2022-08-26T14:57:32.069Z,41.29
2022-08-26T15:00:19.570Z,41.68
2022-08-26T15:03:07.048Z,41.29
2022-08-26T15:05:55.014Z,41.27
2022-08-26T15:08:42.546Z,41.38
2022-08-26T15:11:30.002Z,41.42
2022-08-26T15:14:19.327Z,41.49
2022-08-26T15:17:07.636Z,41.28
2022-08-26T15:19:54.963Z,40.98
2022-08-26T15:22:43.400Z,41.25
2022-08-26T15:25:31.369Z,40.91
2022-08-26T15:28:18.764Z,40.96
2022-08-26T15:31:07.296Z,40.58
2022-08-26T15:33:56.674Z,40.60
2022-08-26T15:36:46.183Z,40.42
2022-08-26T15:39:34.327Z,40.57
2022-08-26T15:42:21.672Z,39.87
2022-08-26T15:45:09.279Z,39.88
2022-08-26T15:48:01.396Z,39.47
2022-08-26T15:50:51.752Z,39.02
2022-08-26T15:53:39.102Z,39.37
2022-08-26T15:56:28.046Z,39.19
2022-08-26T15:59:15.977Z,39.09
2022-08-26T16:02:03.374Z,38.93
2022-08-26T16:04:50.673Z,39.03
2022-08-26T16:07:38.244Z,38.73
2022-08-26T16:10:25.637Z,38.67
2022-08-26T16:13:14.813Z,39.07
2022-08-26T16:16:03.347Z,39.26
2022-08-26T16:18:51.877Z,39.53
2022-08-26T16:21:40.668Z,39.33
2022-08-26T16:24:30.494Z,39.26
2022-08-26T16:27:18.092Z,38.79
2022-08-26T16:30:06.929Z,38.42
2022-08-26T16:32:55.769Z,38.48
2022-08-26T16:35:44.788Z,38.17
2022-08-26T16:38:32.248Z,38.09
2022-08-26T16:41:19.808Z,38.01
2022-08-26T16:44:07.994Z,38.04
2022-08-26T16:46:58.462Z,38.07
2022-08-26T16:49:47.029Z,38.27
2022-08-26T16:52:34.435Z,38.38
2022-08-26T16:55:23.431Z,38.52
2022-08-26T16:58:10.953Z,38.72
2022-08-26T17:00:59.265Z,39.12
2022-08-26T17:03:46.672Z,39.28
2022-08-26T17:06:34.358Z,39.39
2022-08-26T17:09:22.029Z,39.54
2022-08-26T17:12:11.302Z,39.99
2022-08-26T17:14:58.604Z,40.61
2022-08-26T17:17:46.017Z,41.24
2022-08-26T17:20:33.842Z,41.87
2022-08-26T17:23:22.451Z,41.51
2022-08-26T17:26:12.314Z,42.57
2022-08-26T17:29:00.192Z,42.31
2022-08-26T17:31:47.638Z,42.84
2022-08-26T17:34:34.867Z,43.00
2022-08-26T17:37:22.193Z,43.17
2022-08-26T17:40:13.823Z,43.58
2022-08-26T17:43:01.171Z,43.94
2022-08-26T17:45:48.531Z,44.16
2022-08-26T17:48:37.844Z,44.21
2022-08-26T17:51:25.293Z,44.74
2022-08-26T17:54:13.045Z,44.63
2022-08-26T17:57:00.639Z,45.18
2022-08-26T17:59:48.245Z,45.28
2022-08-26T18:02:39.703Z,45.88
2022-08-26T18:05:29.132Z,45.70
2022-08-26T18:08:16.585Z,45.52
2022-08-26T18:11:08.149Z,45.71
2022-08-26T18:13:59.067Z,46.07
2022-08-26T18:16:50.468Z,45.98
2022-08-26T18:19:38.878Z,46.29
2022-08-26T18:22:27.447Z,46.17
2022-08-26T18:25:18.987Z,46.03
2022-08-26T18:28:06.389Z,46.66
2022-08-26T18:30:54.001Z,46.48
2022-08-26T18:33:45.189Z,46.34
2022-08-26T18:36:37.478Z,46.81
2022-08-26T18:39:24.715Z,46.53
2022-08-26T18:42:11.971Z,46.68
2022-08-26T18:44:59.226Z,47.14
2022-08-26T18:47:46.419Z,46.81
2022-08-26T18:50:33.804Z,47.22
2022-08-26T18:53:21.394Z,47.40
2022-08-26T18:56:08.647Z,47.34
2022-08-26T18:58:55.918Z,47.61
2022-08-26T19:01:43.373Z,47.74
2022-08-26T19:04:30.663Z,47.91
2022-08-26T19:07:19.436Z,48.05
2022-08-26T19:10:07.211Z,48.27
2022-08-26T19:13:00.078Z,48.71
2022-08-26T19:15:48.012Z,48.53
2022-08-26T19:18:35.292Z,49.03
2022-08-26T19:21:24.064Z,49.11
2022-08-26T19:24:17.554Z,49.29
2022-08-26T19:27:05.568Z,49.29
2022-08-26T19:29:52.793Z,49.74
2022-08-26T19:32:40.103Z,49.66
2022-08-26T19:35:27.392Z,49.48
2022-08-26T19:38:15.573Z,49.68
2022-08-26T19:41:02.768Z,49.76
2022-08-26T19:43:50.060Z,49.37
2022-08-26T19:49:31.879Z,49.01
2022-08-26T19:52:19.227Z,49.12
2022-08-26T19:55:07.692Z,49.13
2022-08-26T19:57:55.003Z,48.79
2022-08-26T20:00:43.058Z,49.03
2022-08-26T20:03:30.838Z,48.70
2022-08-26T20:06:18.392Z,48.95
2022-08-26T20:09:05.619Z,48.42
2022-08-26T20:11:54.109Z,48.40
2022-08-26T20:14:44.542Z,48.30
2022-08-26T20:17:33.228Z,48.23
2022-08-26T20:20:39.362Z,48.01
2022-08-26T20:23:27.050Z,48.03
2022-08-26T20:26:14.594Z,48.03
2022-08-26T20:29:02.792Z,48.05
2022-08-26T20:31:51.248Z,48.07
2022-08-26T20:34:40.419Z,48.16
2022-08-26T20:37:29.662Z,48.11
2022-08-26T20:40:17.792Z,48.17
2022-08-26T20:43:06.822Z,47.85
2022-08-26T20:45:54.705Z,48.12
2022-08-26T20:48:42.794Z,47.92
2022-08-26T20:51:30.934Z,48.02
2022-08-26T20:54:26.200Z,47.54
2022-08-26T20:57:15.754Z,47.85
2022-08-26T21:00:05.872Z,47.86
2022-08-26T21:02:53.840Z,47.93
2022-08-26T21:05:42.448Z,47.51
2022-08-26T21:08:33.153Z,47.75
2022-08-26T21:11:21.659Z,47.99
2022-08-26T21:14:16.091Z,47.60
2022-08-26T21:17:05.076Z,47.94
2022-08-26T21:19:53.002Z,47.92
2022-08-26T21:22:40.496Z,47.71
2022-08-26T21:25:27.937Z,47.87
2022-08-26T21:28:19.451Z,47.70
2022-08-26T21:31:08.767Z,47.88
2022-08-26T21:33:56.441Z,47.88
2022-08-26T21:36:44.324Z,47.62
2022-08-26T21:39:31.607Z,47.85
2022-08-26T21:42:18.927Z,47.68
2022-08-26T21:45:07.283Z,47.65
2022-08-26T21:47:54.781Z,48.10
2022-08-26T21:50:43.194Z,48.34
2022-08-26T21:53:30.522Z,48.14
2022-08-26T21:56:19.419Z,48.11
2022-08-26T21:59:07.594Z,47.85
2022-08-26T22:01:55.000Z,47.93
2022-08-26T22:04:46.840Z,48.27
2022-08-26T22:07:36.269Z,48.57
2022-08-26T22:10:23.670Z,48.08
2022-08-26T22:13:11.440Z,48.54
2022-08-26T22:16:03.001Z,48.68
2022-08-26T22:18:50.597Z,48.73
2022-08-26T22:21:38.405Z,48.74
2022-08-26T22:24:27.376Z,48.84
2022-08-26T22:27:15.040Z,48.74
2022-08-26T22:30:02.360Z,48.80
2022-08-26T22:32:49.700Z,48.65
2022-08-26T22:35:42.225Z,48.88
2022-08-26T22:38:29.758Z,48.75
2022-08-26T22:41:18.502Z,49.29
2022-08-26T22:44:05.959Z,49.39
2022-08-26T22:46:57.150Z,48.93
2022-08-26T22:49:47.000Z,49.09
2022-08-26T22:52:34.252Z,49.60
2022-08-26T22:55:21.568Z,49.47
2022-08-26T22:58:09.562Z,49.46
2022-08-26T23:00:57.923Z,49.51
2022-08-26T23:03:46.758Z,49.54
2022-08-26T23:06:39.584Z,48.98
2022-08-26T23:09:26.874Z,49.45
2022-08-26T23:12:14.406Z,49.41
2022-08-26T23:15:01.714Z,49.32
2022-08-26T23:17:53.588Z,49.30
2022-08-26T23:20:47.154Z,49.45
2022-08-26T23:23:35.772Z,49.48
2022-08-26T23:26:23.106Z,49.82
2022-08-26T23:29:12.719Z,49.54
2022-08-26T23:32:00.520Z,49.86
2022-08-26T23:34:57.019Z,50.16
2022-08-26T23:37:46.156Z,50.23
2022-08-26T23:40:37.937Z,49.96
2022-08-26T23:43:25.263Z,50.27
2022-08-26T23:46:15.001Z,50.16
2022-08-26T23:49:02.544Z,50.08
2022-08-26T23:52:08.447Z,50.71
2022-08-26T23:54:56.011Z,50.53
2022-08-26T23:57:43.389Z,50.62
